METAR Data
IDs: Format: Raw Decoded Include TAF

Data at: 2245 UTC 10 May 2021

KFMM 102235Z AUTO 07016G21KT 10SM BKN009 BKN014 OVC025 05/03 A3012 RMK AO2 T00450025
KFMM 102215Z AUTO 07019KT 10SM BKN011 OVC016 05/03 A3011 RMK AO2 T00450027
KFMM 102155Z AUTO 07018KT 10SM BKN011 BKN016 OVC024 04/02 A3012 RMK AO2 T00400023
KFMM 102135Z AUTO 08020KT 10SM -RA BKN012 OVC018 04/03 A3012 RMK AO2 T00430025
KFMM 102115Z AUTO 08019G25KT 10SM -RA SCT010 OVC018 04/03 A3011 RMK AO2 T00410025
KFMM 102055Z AUTO 07020G25KT 7SM -RA BKN009 BKN019 OVC027 04/02 A3012 RMK AO2 T00380023
KFMM 102035Z AUTO 08016G23KT 7SM -RA BKN009 BKN015 OVC020 04/02 A3013 RMK AO2 T00400024
KFMM 102015Z AUTO 09018G22KT 7SM -RA BKN011 BKN018 OVC023 05/03 A3012 RMK AO2 T00450028
KFMM 101955Z AUTO 09019G22KT 7SM DZ SCT011 BKN015 OVC047 04/02 A3013 RMK AO2 T00400021
KFMM 101935Z AUTO 09017G23KT 10SM -RA BKN011 BKN017 OVC023 04/02 A3012 RMK AO2 T00410024
KFMM 101915Z AUTO 08019G22KT 7SM -RA BKN009 OVC014 04/02 A3012 RMK AO2 T00380024
KFMM 101855Z AUTO 09018G24KT 10SM -RA BKN009 OVC015 04/02 A3012 RMK AO2 T00360022
KFMM 101835Z AUTO 10019G25KT 7SM -RA BKN009 OVC015 04/02 A3012 RMK AO2 T00370023
KFMM 101815Z AUTO 10017G24KT 5SM RA OVC009 04/02 A3013 RMK AO2 T00350020
KFMM 101755Z AUTO 10016G20KT 4SM -RA OVC009 04/02 A3013 RMK AO2 LTG DSNT W T00350023 10050 20017
KFMM 101735Z AUTO 10015G19KT 7SM RA OVC009 03/02 A3014 RMK AO2 T00300019
KFMM 101715Z AUTO 10017G20KT 5SM -RA OVC009 03/02 A3014 RMK AO2 T00260016
KFMM 101655Z AUTO 10015G20KT 3SM RA BKN005 OVC009 02/01 A3014 RMK AO2 T00190009
KFMM 101635Z AUTO 12013G19KT 3SM RA BKN007 OVC011 02/01 A3014 RMK AO2 T00180007
KFMM 101615Z AUTO 12015G20KT 4SM RA BKN007 OVC011 02/01 A3014 RMK AO2 T00220010
KFMM 101555Z AUTO 12014G19KT 4SM -RA BKN010 OVC014 03/02 A3014 RMK AO2 T00280015
KFMM 101535Z AUTO 12015G20KT 7SM -RA BKN008 OVC015 03/02 A3013 RMK AO2 T00310019
KFMM 101515Z AUTO 13017G22KT 7SM -RA BKN010 OVC015 03/02 A3013 RMK AO2 T00300016
KFMM 101455Z AUTO 12017G21KT 5SM -RA SCT008 OVC015 04/02 A3013 RMK AO2 T00360021
KFMM 101435Z AUTO 13014G19KT 7SM -RA BKN017 OVC022 04/02 A3013 RMK AO2 T00370021
KFMM 101415Z AUTO 13014G17KT 7SM RA SCT020 OVC033 04/02 A3013 RMK AO2 T00370023
KFMM 101355Z AUTO 13013G19KT 10SM DZ OVC031 04/02 A3013 RMK AO2 T00360017
KFMM 101335Z AUTO 13012G17KT 10SM DZ SCT018 OVC027 04/02 A3013 RMK AO2 T00390023
KFMM 101315Z AUTO 13012G19KT 10SM DZ BKN021 OVC027 04/03 A3012 RMK AO2 T00410025
KFMM 101255Z AUTO 12012KT 10SM SCT009 SCT021 OVC033 04/03 A3012 RMK AO2 T00410025
KFMM 101235Z AUTO 12012G19KT 10SM SCT009 SCT019 OVC033 05/03 A3011 RMK AO2 T00450027
KFMM 101215Z AUTO 11012G15KT 10SM SCT013 BKN023 OVC033 05/03 A3011 RMK AO2 T00500027
KFMM 101155Z AUTO 10012G15KT 10SM SCT023 OVC035 05/03 A3011 RMK AO2 T00510026 10070 20051
KFMM 101135Z AUTO 10011KT 10SM OVC037 05/03 A3010 RMK AO2 T00530026
KFMM 101115Z AUTO 11009KT 10SM BKN042 OVC049 06/03 A3011 RMK AO2 T00550033
KFMM 101055Z AUTO 10007KT 10SM SCT034 OVC044 05/04 A3011 RMK AO2 T00540035
KFMM 101035Z AUTO 10007KT 10SM -DZ BKN034 OVC040 05/03 A3011 RMK AO2 T00530034
KFMM 101015Z AUTO 09007KT 10SM RA SCT030 BKN038 OVC048 05/03 A3011 RMK AO2 T00530030
KFMM 100955Z AUTO 13007KT 7SM RA SCT025 BKN034 OVC048 06/03 A3011 RMK AO2 T00550028
KFMM 100935Z AUTO 13006KT 10SM DZ SCT026 BKN039 OVC047 06/02 A3011 RMK AO2 T00580021
KFMM 100915Z AUTO 13006KT 10SM DZ SCT037 OVC044 06/02 A3010 RMK AO2 T00600016
KFMM 100855Z AUTO 11003KT 10SM RA BKN044 OVC050 06/02 A3011 RMK AO2 T00620016
KFMM 100835Z AUTO 07003KT 10SM BKN050 BKN065 OVC080 06/02 A3011 RMK AO2 T00630020
KFMM 100815Z AUTO 05003KT 10SM SCT065 SCT080 OVC090 06/02 A3011 RMK AO2 T00610022
KFMM 100755Z AUTO 00000KT 10SM SCT060 BKN080 OVC090 06/02 A3011 RMK AO2 T00640015
KFMM 100735Z AUTO 07004KT 10SM OVC060 07/02 A3012 RMK AO2 T00650023
KFMM 100715Z AUTO 06003KT 10SM OVC060 07/02 A3012 RMK AO2 T00670015
KFMM 100655Z AUTO 09003KT 10SM OVC050 07/02 A3013 RMK AO2 LTG DSNT S T00670016
KFMM 100635Z AUTO 07004KT 10SM OVC050 07/02 A3013 RMK AO2 T00670018
KFMM 100615Z AUTO 09003KT 10SM OVC050 07/02 A3013 RMK AO2 LTG DSNT S T00680017
KFMM 100555Z AUTO 07004KT 10SM OVC050 07/02 A3012 RMK AO2 T00690017 10099 20069 401200040
KFMM 100535Z AUTO 06004KT 10SM OVC055 07/01 A3012 RMK AO2 T00690013
KFMM 100515Z AUTO 08003KT 10SM OVC055 07/02 A3013 RMK AO2 LTG DSNT S T00700015
KFMM 100455Z AUTO 07003KT 10SM -RA OVC055 07/01 A3013 RMK AO2 T00700011
KFMM 100435Z AUTO 15003KT 10SM OVC055 07/01 A3013 RMK AO2 T00720007
KFMM 100415Z AUTO 10003KT 10SM OVC055 07/01 A3013 RMK AO2 T00720007
KFMM 100355Z AUTO 11004KT 10SM OVC055 08/01 A3012 RMK AO2 T00750005
KFMM 100335Z AUTO 12005KT 10SM BKN055 OVC070 08/00 A3012 RMK AO2 T00750001
KFMM 100315Z AUTO 13006KT 10SM SCT055 BKN080 OVC085 08/00 A3011 RMK AO2 T00750001
KFMM 100255Z AUTO 14007KT 10SM BKN055 OVC080 08/00 A3011 RMK AO2 T00760000
KFMM 100235Z AUTO 14009KT 10SM OVC055 08/00 A3010 RMK AO2 LTG DSNT N T00821005
KFMM 100215Z AUTO 13010KT 10SM OVC055 08/M01 A3009 RMK AO2 T00831006
KFMM 100155Z AUTO 14007KT 10SM OVC055 08/00 A3009 RMK AO2 T00830000
KFMM 100135Z AUTO 14009KT 10SM SCT055 BKN065 BKN085 09/00 A3009 RMK AO2 T00850000
KFMM 100115Z AUTO 14011KT 10SM SCT060 BKN075 09/00 A3008 RMK AO2 T00880002
KFMM 100055Z AUTO 14011KT 10SM BKN065 OVC070 09/01 A3008 RMK AO2 T00910006
KFMM 100035Z AUTO 15010KT 10SM OVC065 10/00 A3008 RMK AO2 T00950003
KFMM 100015Z AUTO 14010KT 10SM OVC065 10/01 A3007 RMK AO2 T00950007
KFMM 092355Z AUTO 15012KT 10SM SCT065 11/00 A3007 RMK AO2 T01050002 10120 20096
KFMM 092335Z AUTO 14012G17KT 10SM CLR 11/00 A3007 RMK AO2 T01140003
KFMM 092315Z AUTO 14011G16KT 10SM CLR 11/00 A3006 RMK AO2 T01130000
KFMM 092255Z AUTO 14006KT 10SM CLR 12/00 A3006 RMK AO2 T01171001
KFMM 092235Z AUTO 14010G16KT 10SM CLR 12/00 A3006 RMK AO2 T01200001
KFMM 092215Z AUTO 14008KT 10SM SCT041 12/00 A3006 RMK AO2 T01201003
KFMM 092155Z AUTO 13008G15KT 10SM SCT041 SCT046 11/M01 A3006 RMK AO2 T01141006
KFMM 092135Z AUTO 16010G16KT 10SM SCT048 11/00 A3006 RMK AO2 T01131004
KFMM 092115Z AUTO 11009KT 10SM SCT050 12/M02 A3007 RMK AO2 T01181019
KFMM 092055Z AUTO 09010KT 10SM CLR 12/M02 A3007 RMK AO2 T01151021
KFMM 092035Z AUTO 15004KT 10SM SCT120 12/M02 A3007 RMK AO2 T01191020
KFMM 092015Z AUTO 08005KT 10SM SCT120 12/M02 A3008 RMK AO2 T01171021
KFMM 091955Z AUTO 08005KT 10SM CLR 12/M01 A3008 RMK AO2 T01191009
KFMM 091935Z AUTO 13005KT 10SM CLR 12/M01 A3009 RMK AO2 T01161015
KFMM 091915Z AUTO 07003KT 10SM SCT036 SCT100 11/00 A3009 RMK AO2 T01101003
KFMM 091855Z AUTO 08005KT 10SM SCT036 BKN100 11/00 A3009 RMK AO2 T01071002
KFMM 091835Z AUTO 10005KT 10SM SCT032 BKN100 BKN120 11/01 A3011 RMK AO2 T01050005
KFMM 091815Z AUTO 00000KT 10SM SCT030 SCT035 BKN100 10/00 A3011 RMK AO2 T01001004
KFMM 091755Z AUTO 15004KT 10SM SCT032 SCT110 10/00 A3011 RMK AO2 T00991001 10104 20041
KFMM 091735Z AUTO 00000KT 10SM BKN030 BKN110 10/00 A3012 RMK AO2 T01011003
KFMM 091715Z AUTO 04003KT 10SM SCT030 09/00 A3012 RMK AO2 T00871002
KFMM 091655Z AUTO 06004KT 10SM SCT025 SCT031 09/00 A3013 RMK AO2 T00930001
KFMM 091635Z AUTO 02003KT 10SM BKN025 OVC031 08/00 A3013 RMK AO2 T00811004
KFMM 091615Z AUTO 00000KT 10SM BKN025 BKN030 08/00 A3013 RMK AO2 T00830002
KFMM 091555Z AUTO 02003KT 10SM BKN022 BKN028 08/01 A3013 RMK AO2 T00790006
KFMM 091535Z AUTO 02003KT 10SM OVC020 07/00 A3013 RMK AO2 T00690002
KFMM 091515Z AUTO 05004KT 10SM OVC020 07/01 A3013 RMK AO2 T00730005
KFMM 091455Z AUTO 04003KT 10SM OVC018 07/01 A3013 RMK AO2 T00680007
KFMM 091435Z AUTO 04005KT 10SM OVC016 07/01 A3013 RMK AO2 T00670010
KFMM 091415Z AUTO 04005KT 10SM SCT012 OVC019 05/01 A3013 RMK AO2 T00540009
KFMM 091355Z AUTO 02004KT 10SM SCT012 SCT018 BKN100 05/02 A3012 RMK AO2 T00530015
KFMM 091335Z AUTO 06004KT 10SM SCT010 SCT015 BKN100 05/02 A3012 RMK AO2 T00500015
KFMM 091315Z AUTO 04003KT 10SM SCT009 BKN019 OVC080 05/02 A3012 RMK AO2 T00450017
KFMM 091255Z AUTO 07005KT 10SM SCT007 BKN015 OVC085 04/03 A3012 RMK AO2 T00420027
KFMM 091235Z AUTO 09004KT 10SM SCT015 OVC085 04/02 A3010 RMK AO2 T00420023
KFMM 091215Z AUTO 00000KT 10SM OVC085 05/02 A3010 RMK AO2 T00450021
KFMM 091155Z AUTO 04004KT 10SM SCT065 OVC085 04/02 A3009 RMK AO2 T00420024 10061 20040
KFMM 091135Z AUTO 10007KT 10SM SCT065 OVC085 05/02 A3008 RMK AO2 T00470020
KFMM 091115Z AUTO 01005KT 10SM OVC085 05/02 A3007 RMK AO2 T00480015
KFMM 091055Z AUTO 36004KT 10SM SCT065 OVC085 05/02 A3005 RMK AO2 T00450020